createdAt,value
2022-11-11T00:02:14.885Z,77.30
2022-11-11T00:05:00.175Z,77.33
2022-11-11T00:07:45.493Z,77.41
2022-11-11T00:10:31.487Z,77.49
2022-11-11T00:13:17.144Z,77.37
2022-11-11T00:16:11.510Z,77.40
2022-11-11T00:19:15.630Z,77.39
2022-11-11T00:22:19.996Z,77.34
2022-11-11T00:25:08.656Z,77.30
2022-11-11T00:27:54.139Z,77.26
2022-11-11T00:30:39.477Z,77.22
2022-11-11T00:33:24.964Z,77.30
2022-11-11T00:36:10.636Z,77.36
2022-11-11T00:38:58.226Z,77.34
2022-11-11T00:41:43.447Z,77.40
2022-11-11T00:44:28.841Z,77.42
2022-11-11T00:47:33.068Z,77.46
2022-11-11T00:50:41.165Z,77.52
2022-11-11T00:53:31.460Z,77.59
2022-11-11T00:56:17.261Z,77.62
2022-11-11T00:59:07.233Z,77.71
2022-11-11T01:01:52.610Z,77.77
2022-11-11T01:04:37.903Z,77.80
2022-11-11T01:07:23.764Z,77.80
2022-11-11T01:10:09.437Z,77.80
2022-11-11T01:13:12.301Z,77.88
2022-11-11T01:16:05.256Z,77.96
2022-11-11T01:18:52.363Z,78.00
2022-11-11T01:21:37.651Z,78.10
2022-11-11T01:24:23.264Z,78.10
2022-11-11T01:27:08.733Z,78.13
2022-11-11T01:29:54.132Z,78.29
2022-11-11T01:32:40.601Z,78.30
2022-11-11T01:35:26.134Z,78.30
2022-11-11T01:38:11.692Z,78.36
2022-11-11T01:40:57.029Z,78.42
2022-11-11T01:43:42.356Z,78.40
2022-11-11T01:46:50.346Z,78.40
2022-11-11T01:49:56.663Z,78.34
2022-11-11T01:52:45.408Z,78.37
2022-11-11T01:55:32.166Z,78.31
2022-11-11T01:58:18.831Z,78.22
2022-11-11T02:01:05.459Z,78.20
2022-11-11T02:04:13.806Z,78.34
2022-11-11T02:07:05.026Z,78.35
2022-11-11T02:09:52.539Z,78.27
2022-11-11T02:12:56.687Z,78.27
2022-11-11T02:15:42.449Z,78.19
2022-11-11T02:18:31.223Z,78.10
2022-11-11T02:21:34.266Z,78.10
2022-11-11T02:24:22.380Z,78.10
2022-11-11T02:27:13.317Z,78.10
2022-11-11T02:30:02.479Z,78.10
2022-11-11T02:32:52.012Z,78.10
2022-11-11T02:35:47.182Z,78.12
2022-11-11T02:38:32.874Z,78.11
2022-11-11T02:41:37.107Z,78.07
2022-11-11T02:44:23.531Z,78.12
2022-11-11T02:47:09.107Z,78.22
2022-11-11T02:49:54.590Z,78.37
2022-11-11T02:52:39.982Z,78.52
2022-11-11T02:55:25.515Z,78.67
2022-11-11T02:58:11.676Z,78.59
2022-11-11T03:00:56.787Z,78.54
2022-11-11T03:03:42.232Z,78.52
2022-11-11T03:06:27.878Z,78.49
2022-11-11T03:09:13.538Z,78.42
2022-11-11T03:11:59.181Z,78.40
2022-11-11T03:14:44.739Z,78.41
2022-11-11T03:17:39.545Z,78.41
2022-11-11T03:20:43.674Z,78.48
2022-11-11T03:23:29.181Z,78.48
2022-11-11T03:26:15.824Z,78.41
2022-11-11T03:29:01.614Z,78.51
2022-11-11T03:34:40.394Z,78.34
2022-11-11T03:37:44.057Z,78.20
2022-11-11T03:40:29.215Z,78.12
2022-11-11T03:43:17.407Z,78.10
2022-11-11T03:46:05.439Z,78.10
2022-11-11T03:48:50.647Z,78.00
2022-11-11T03:51:36.001Z,77.88
2022-11-11T03:54:21.678Z,77.86
2022-11-11T03:57:25.995Z,77.80
2022-11-11T04:00:15.213Z,77.85
2022-11-11T04:03:26.950Z,77.82
2022-11-11T04:06:31.495Z,77.91
2022-11-11T04:09:36.049Z,78.00
2022-11-11T04:12:23.366Z,78.00
2022-11-11T04:15:27.685Z,78.00
2022-11-11T04:18:13.186Z,77.97
2022-11-11T04:21:17.478Z,77.99
2022-11-11T04:24:03.691Z,77.98
2022-11-11T04:26:49.004Z,77.87
2022-11-11T04:29:35.009Z,77.88
2022-11-11T04:32:42.895Z,77.94
2022-11-11T04:35:28.310Z,78.00
2022-11-11T04:38:32.483Z,78.08
2022-11-11T04:41:17.807Z,78.09
2022-11-11T04:44:23.370Z,78.04
2022-11-11T04:47:08.750Z,77.99
2022-11-11T04:49:54.003Z,77.90
2022-11-11T04:52:39.393Z,77.97
2022-11-11T04:55:44.849Z,78.03
2022-11-11T04:58:35.446Z,78.22
2022-11-11T05:01:45.075Z,78.41
2022-11-11T05:04:31.560Z,78.59
2022-11-11T05:07:35.629Z,78.68
2022-11-11T05:10:20.810Z,78.60
2022-11-11T05:13:25.115Z,78.60
2022-11-11T05:16:38.954Z,78.70
2022-11-11T05:19:43.418Z,78.74
2022-11-11T05:22:39.572Z,78.80
2022-11-11T05:25:30.714Z,78.81
2022-11-11T05:28:15.965Z,78.84
2022-11-11T05:31:01.140Z,78.94
2022-11-11T05:33:46.619Z,79.01
2022-11-11T05:36:32.056Z,79.10
2022-11-11T05:39:17.572Z,79.10
2022-11-11T05:42:02.987Z,79.06
2022-11-11T05:44:48.497Z,79.00
2022-11-11T05:47:33.645Z,78.82
2022-11-11T05:50:19.149Z,78.61
2022-11-11T05:53:04.441Z,78.51
2022-11-11T05:55:53.209Z,78.56
2022-11-11T05:58:38.749Z,78.60
2022-11-11T06:01:24.357Z,78.52
2022-11-11T06:04:15.181Z,78.42
2022-11-11T06:07:03.508Z,78.40
2022-11-11T06:09:48.943Z,78.39
2022-11-11T06:12:54.359Z,78.44
2022-11-11T06:15:41.100Z,78.41
2022-11-11T06:18:31.205Z,78.40
2022-11-11T06:21:17.590Z,78.36
2022-11-11T06:24:03.848Z,78.32
2022-11-11T06:26:49.120Z,78.27
2022-11-11T06:29:34.772Z,78.20
2022-11-11T06:32:20.066Z,78.12
2022-11-11T06:35:05.921Z,78.03
2022-11-11T06:37:50.968Z,77.95
2022-11-11T06:40:35.946Z,77.86
2022-11-11T06:43:22.051Z,77.82
2022-11-11T06:46:18.365Z,77.79
2022-11-11T06:49:04.573Z,77.65
2022-11-11T06:51:49.714Z,77.60
2022-11-11T06:54:35.174Z,77.53
2022-11-11T06:57:23.353Z,77.49
2022-11-11T07:00:09.624Z,77.40
2022-11-11T07:02:58.054Z,77.28
2022-11-11T07:05:44.087Z,77.14
2022-11-11T07:08:29.724Z,77.05
2022-11-11T07:11:19.035Z,76.90
2022-11-11T07:14:05.523Z,76.82
2022-11-11T07:16:50.893Z,77.01
2022-11-11T07:19:36.692Z,77.38
2022-11-11T07:22:21.881Z,77.40
2022-11-11T07:25:08.003Z,77.33
2022-11-11T07:27:58.763Z,77.24
2022-11-11T07:30:44.712Z,77.15
2022-11-11T07:33:30.208Z,76.99
2022-11-11T07:36:15.750Z,76.83
2022-11-11T07:39:06.159Z,76.74
2022-11-11T07:41:53.757Z,76.51
2022-11-11T07:44:39.224Z,76.29
2022-11-11T07:47:24.659Z,76.16
2022-11-11T07:50:10.743Z,75.97
2022-11-11T07:52:56.018Z,75.73
2022-11-11T07:55:41.410Z,75.19
2022-11-11T07:58:27.050Z,75.09
2022-11-11T08:01:12.811Z,74.77
2022-11-11T08:03:58.269Z,75.06
2022-11-11T08:06:43.815Z,74.83
2022-11-11T08:09:28.840Z,74.28
2022-11-11T08:12:33.181Z,73.95
2022-11-11T08:15:18.829Z,73.66
2022-11-11T08:18:04.254Z,73.40
2022-11-11T08:20:54.737Z,73.21
2022-11-11T08:26:48.059Z,72.93
2022-11-11T08:29:33.281Z,72.65
2022-11-11T08:32:18.525Z,72.42
2022-11-11T08:35:04.684Z,72.08
2022-11-11T08:37:49.779Z,71.80
2022-11-11T08:40:35.376Z,71.59
2022-11-11T08:43:23.037Z,71.41
2022-11-11T08:46:09.367Z,71.03
2022-11-11T08:48:55.187Z,70.66
2022-11-11T08:51:44.609Z,70.09
2022-11-11T08:54:30.520Z,69.95
2022-11-11T08:57:16.119Z,69.88
2022-11-11T09:00:01.569Z,69.66
2022-11-11T09:02:47.169Z,69.61
2022-11-11T09:05:33.997Z,69.58
2022-11-11T09:08:19.783Z,69.55
2022-11-11T09:11:05.310Z,69.60
2022-11-11T09:13:50.842Z,69.07
2022-11-11T09:16:36.418Z,68.29
2022-11-11T09:19:22.197Z,66.92
2022-11-11T09:22:07.334Z,65.82
2022-11-11T09:24:52.907Z,64.79
2022-11-11T09:27:38.706Z,63.72
2022-11-11T09:30:26.230Z,62.70
2022-11-11T09:33:12.665Z,61.69
2022-11-11T09:35:59.395Z,60.46
2022-11-11T09:38:44.624Z,59.46
2022-11-11T09:42:17.913Z,58.48
2022-11-11T09:45:22.329Z,57.60
2022-11-11T09:48:51.667Z,56.86
2022-11-11T09:52:23.014Z,56.05
2022-11-11T09:55:23.516Z,55.17
2022-11-11T09:58:45.979Z,54.05
2022-11-11T10:01:50.480Z,54.48
2022-11-11T10:04:55.816Z,53.56
2022-11-11T10:07:52.070Z,53.58
2022-11-11T10:10:48.988Z,53.33
2022-11-11T10:13:37.287Z,53.00
2022-11-11T10:16:55.574Z,52.67
2022-11-11T10:20:18.600Z,52.21
2022-11-11T10:23:15.022Z,51.91
2022-11-11T10:26:10.701Z,51.99
2022-11-11T10:29:00.437Z,51.25
2022-11-11T10:32:04.360Z,50.15
2022-11-11T10:34:49.402Z,48.96
2022-11-11T10:37:44.611Z,50.04
2022-11-11T10:40:50.407Z,49.51
2022-11-11T10:43:35.931Z,49.18
2022-11-11T10:46:35.400Z,48.98
2022-11-11T10:49:31.568Z,50.95
2022-11-11T10:52:35.293Z,50.84
2022-11-11T10:55:51.997Z,50.49
2022-11-11T10:58:59.785Z,50.32
2022-11-11T11:02:13.187Z,50.51
2022-11-11T11:05:27.582Z,50.56
2022-11-11T11:08:20.127Z,50.75
2022-11-11T11:11:16.556Z,51.35
2022-11-11T11:14:11.013Z,51.50
2022-11-11T11:17:01.803Z,51.50
2022-11-11T11:20:20.543Z,51.86
2022-11-11T11:23:06.034Z,52.63
2022-11-11T11:25:57.766Z,53.82
2022-11-11T11:29:03.869Z,54.45
2022-11-11T11:31:49.170Z,55.24
2022-11-11T11:34:48.167Z,55.25
2022-11-11T11:37:50.506Z,56.05
2022-11-11T11:40:56.431Z,56.77
2022-11-11T11:43:43.362Z,57.26
2022-11-11T11:46:39.703Z,57.36
2022-11-11T11:49:42.338Z,57.39
2022-11-11T11:52:52.724Z,57.87
2022-11-11T11:56:07.473Z,58.31
2022-11-11T11:59:16.188Z,58.73
2022-11-11T12:02:44.427Z,58.72
2022-11-11T12:05:50.895Z,58.63
2022-11-11T12:09:23.685Z,58.48
2022-11-11T12:12:31.717Z,58.71
2022-11-11T12:15:44.186Z,58.35
2022-11-11T12:19:09.645Z,58.20
2022-11-11T12:22:03.957Z,58.82
2022-11-11T12:25:21.306Z,59.47
2022-11-11T12:28:40.763Z,59.83
2022-11-11T12:31:41.905Z,60.08
2022-11-11T12:35:01.454Z,60.05
2022-11-11T12:38:15.014Z,60.00
2022-11-11T12:41:16.488Z,59.95
2022-11-11T12:44:08.995Z,59.95
2022-11-11T12:47:35.692Z,59.72
2022-11-11T12:50:53.196Z,60.17
2022-11-11T12:53:48.079Z,60.18
2022-11-11T12:57:05.163Z,60.22
2022-11-11T13:00:05.339Z,60.20
2022-11-11T13:03:12.526Z,59.61
2022-11-11T13:06:21.712Z,59.39
2022-11-11T13:09:42.605Z,59.61
2022-11-11T13:12:42.469Z,59.82
2022-11-11T13:15:28.987Z,60.23
2022-11-11T13:18:53.320Z,60.29
2022-11-11T13:21:54.711Z,60.47
2022-11-11T13:24:40.468Z,60.87
2022-11-11T13:27:31.735Z,61.02
2022-11-11T13:30:41.469Z,61.30
2022-11-11T13:33:42.849Z,61.79
2022-11-11T13:36:32.713Z,61.88
2022-11-11T13:39:37.999Z,62.11
2022-11-11T13:42:28.527Z,62.29
2022-11-11T13:45:42.169Z,62.44
2022-11-11T13:48:39.197Z,62.53
2022-11-11T13:51:37.956Z,62.72
2022-11-11T13:54:33.746Z,62.92
2022-11-11T13:57:27.037Z,62.99
2022-11-11T14:00:18.722Z,63.34
2022-11-11T14:03:22.307Z,63.43
2022-11-11T14:06:14.343Z,63.55
2022-11-11T14:09:00.256Z,63.64
2022-11-11T14:11:45.613Z,63.60
2022-11-11T14:14:37.248Z,63.69
2022-11-11T14:17:23.201Z,63.74
2022-11-11T14:20:41.707Z,63.31
2022-11-11T14:23:33.132Z,63.08
2022-11-11T14:26:26.327Z,63.05
2022-11-11T14:29:19.149Z,63.17
2022-11-11T14:32:41.153Z,63.19
2022-11-11T14:36:18.894Z,63.10
2022-11-11T14:39:40.076Z,63.15
2022-11-11T14:42:35.468Z,63.29
2022-11-11T14:45:24.002Z,63.31
2022-11-11T14:48:53.300Z,63.41
2022-11-11T14:51:43.204Z,63.47
2022-11-11T14:54:36.888Z,63.63
2022-11-11T14:57:26.399Z,63.80
2022-11-11T15:00:25.392Z,64.10
2022-11-11T15:03:18.326Z,64.48
2022-11-11T15:06:16.774Z,64.84
2022-11-11T15:09:26.559Z,64.88
2022-11-11T15:13:06.027Z,64.94
2022-11-11T15:16:25.757Z,65.24
2022-11-11T15:19:49.247Z,65.44
2022-11-11T15:23:12.998Z,66.14
2022-11-11T15:26:20.210Z,66.71
2022-11-11T15:29:48.806Z,67.19
2022-11-11T15:33:11.609Z,67.70
2022-11-11T15:36:18.688Z,67.94
2022-11-11T15:39:12.569Z,68.77
2022-11-11T15:41:57.767Z,69.13
2022-11-11T15:44:43.298Z,69.29
2022-11-11T15:47:34.213Z,69.92
2022-11-11T15:50:26.192Z,70.00
2022-11-11T15:53:23.356Z,70.17
2022-11-11T15:56:09.099Z,70.13
2022-11-11T15:58:55.161Z,70.68
2022-11-11T16:01:40.775Z,71.13
2022-11-11T16:07:38.089Z,71.20
2022-11-11T16:10:34.322Z,71.37
2022-11-11T16:13:34.503Z,71.58
2022-11-11T16:16:31.397Z,71.60
2022-11-11T16:19:35.468Z,71.75
2022-11-11T16:22:28.396Z,72.00
2022-11-11T16:25:19.571Z,72.33
2022-11-11T16:28:05.344Z,72.67
2022-11-11T16:30:51.067Z,72.55
2022-11-11T16:33:36.540Z,72.56
2022-11-11T16:36:22.099Z,72.74
2022-11-11T16:39:21.422Z,72.87
2022-11-11T16:42:21.796Z,72.88
2022-11-11T16:45:20.468Z,72.97
2022-11-11T16:48:31.639Z,73.06
2022-11-11T16:51:25.179Z,73.22
2022-11-11T16:54:22.933Z,73.34
2022-11-11T16:57:08.368Z,73.42
2022-11-11T17:00:01.046Z,73.48
2022-11-11T17:02:46.438Z,73.73
2022-11-11T17:05:59.254Z,74.06
2022-11-11T17:08:46.128Z,74.19
2022-11-11T17:11:40.485Z,74.23
2022-11-11T17:14:28.148Z,74.25
2022-11-11T17:17:13.653Z,74.55
2022-11-11T17:20:19.714Z,74.88
2022-11-11T17:23:06.599Z,75.04
2022-11-11T17:26:00.632Z,75.17
2022-11-11T17:28:46.085Z,75.12
2022-11-11T17:31:31.714Z,75.19
2022-11-11T17:34:17.202Z,75.36
2022-11-11T17:37:02.779Z,75.49
2022-11-11T17:39:48.370Z,75.60
2022-11-11T17:42:34.706Z,75.74
2022-11-11T17:45:20.247Z,75.91
2022-11-11T17:48:06.726Z,75.90
2022-11-11T17:50:52.172Z,75.82
2022-11-11T17:53:37.489Z,75.70
2022-11-11T17:56:25.310Z,75.69
2022-11-11T17:59:10.979Z,75.71
2022-11-11T18:01:57.028Z,75.70
2022-11-11T18:04:42.518Z,75.70
2022-11-11T18:07:28.158Z,75.72
2022-11-11T18:10:13.916Z,75.90
2022-11-11T18:12:59.586Z,76.19
2022-11-11T18:15:44.850Z,76.19
2022-11-11T18:18:32.167Z,76.08
2022-11-11T18:21:17.596Z,76.14
2022-11-11T18:24:10.859Z,76.15
2022-11-11T18:26:56.096Z,76.02
2022-11-11T18:29:42.501Z,75.87
2022-11-11T18:32:28.123Z,75.81
2022-11-11T18:35:13.683Z,75.69
2022-11-11T18:37:59.133Z,75.68
2022-11-11T18:40:44.071Z,75.70
2022-11-11T18:43:29.298Z,75.61
2022-11-11T18:46:17.329Z,75.48
2022-11-11T18:49:05.426Z,75.50
2022-11-11T18:51:50.826Z,75.52
2022-11-11T18:54:36.224Z,75.57
2022-11-11T18:57:21.567Z,75.60
2022-11-11T19:00:07.955Z,75.60
2022-11-11T19:02:53.184Z,75.59
2022-11-11T19:05:38.711Z,75.59
2022-11-11T19:08:24.089Z,75.52
2022-11-11T19:11:10.362Z,75.55
2022-11-11T19:13:56.040Z,75.63
2022-11-11T19:16:42.104Z,75.82
2022-11-11T19:19:27.256Z,76.05
2022-11-11T19:22:12.808Z,76.08
2022-11-11T19:24:57.952Z,76.17
2022-11-11T19:27:43.407Z,76.22
2022-11-11T19:30:28.639Z,76.35
2022-11-11T19:33:13.931Z,76.56
2022-11-11T19:36:02.858Z,76.60
2022-11-11T19:38:48.644Z,76.72
2022-11-11T19:41:34.048Z,77.04
2022-11-11T19:44:19.491Z,77.12
2022-11-11T19:47:05.454Z,77.28
2022-11-11T19:49:50.708Z,77.45
2022-11-11T19:52:35.973Z,77.30
2022-11-11T19:55:21.377Z,77.31
2022-11-11T19:58:07.513Z,77.35
2022-11-11T20:00:52.789Z,77.36
2022-11-11T20:03:39.951Z,77.38
2022-11-11T20:06:35.992Z,77.37
2022-11-11T20:09:21.512Z,77.41
2022-11-11T20:12:06.973Z,77.31
2022-11-11T20:14:52.567Z,77.20
2022-11-11T20:17:37.974Z,77.22
2022-11-11T20:20:24.293Z,77.36
2022-11-11T20:23:09.605Z,77.42
2022-11-11T20:25:56.283Z,77.42
2022-11-11T20:28:42.852Z,77.56
2022-11-11T20:31:28.477Z,77.72
2022-11-11T20:34:13.567Z,77.87
2022-11-11T20:36:58.873Z,78.01
2022-11-11T20:39:44.284Z,78.18
2022-11-11T20:42:29.709Z,78.31
2022-11-11T20:45:15.219Z,78.39
2022-11-11T20:48:00.664Z,78.40
2022-11-11T20:50:46.215Z,78.54
2022-11-11T20:53:31.612Z,78.61
2022-11-11T20:56:23.409Z,78.73
2022-11-11T20:59:09.541Z,78.77
2022-11-11T21:01:54.789Z,78.80
2022-11-11T21:04:40.141Z,78.81
2022-11-11T21:07:25.933Z,78.80
2022-11-11T21:10:11.238Z,78.85
2022-11-11T21:12:56.599Z,78.90
2022-11-11T21:15:41.965Z,79.00
2022-11-11T21:18:27.681Z,79.08
2022-11-11T21:21:25.178Z,79.14
2022-11-11T21:24:10.520Z,79.31
2022-11-11T21:26:56.107Z,79.37
2022-11-11T21:29:41.646Z,79.42
2022-11-11T21:32:27.366Z,79.48
2022-11-11T21:35:12.740Z,79.50
2022-11-11T21:37:58.053Z,79.49
2022-11-11T21:40:43.198Z,79.37
2022-11-11T21:43:28.527Z,79.42
2022-11-11T21:46:18.595Z,79.53
2022-11-11T21:49:05.589Z,80.24
2022-11-11T21:51:51.048Z,80.34
2022-11-11T21:54:36.408Z,80.32
2022-11-11T21:57:21.718Z,80.29
2022-11-11T22:00:08.337Z,80.19
2022-11-11T22:02:54.211Z,80.12
2022-11-11T22:05:39.347Z,80.10
2022-11-11T22:08:25.162Z,80.10
2022-11-11T22:11:18.389Z,80.08
2022-11-11T22:14:05.696Z,80.06
2022-11-11T22:16:51.152Z,80.02
2022-11-11T22:19:36.549Z,80.00
2022-11-11T22:22:21.714Z,79.96
2022-11-11T22:25:08.039Z,79.98
2022-11-11T22:27:54.248Z,79.93
2022-11-11T22:30:39.510Z,79.67
2022-11-11T22:33:25.029Z,79.51
2022-11-11T22:36:19.852Z,79.54
2022-11-11T22:39:07.736Z,79.50
2022-11-11T22:41:52.988Z,79.50
2022-11-11T22:44:38.349Z,79.50
2022-11-11T22:47:23.787Z,79.46
2022-11-11T22:50:09.427Z,79.40
2022-11-11T22:52:55.136Z,79.40
2022-11-11T22:55:40.365Z,79.40
2022-11-11T22:58:26.069Z,79.48
2022-11-11T23:01:29.643Z,79.61
2022-11-11T23:04:15.287Z,80.26
2022-11-11T23:07:00.667Z,80.28
2022-11-11T23:09:45.830Z,80.22
2022-11-11T23:12:31.299Z,80.23
2022-11-11T23:15:16.858Z,80.09
2022-11-11T23:18:02.339Z,80.00
2022-11-11T23:20:57.365Z,79.89
2022-11-11T23:23:42.892Z,79.81
2022-11-11T23:26:31.420Z,79.90
2022-11-11T23:29:16.528Z,79.96
2022-11-11T23:32:02.028Z,79.91
2022-11-11T23:34:47.350Z,79.86
2022-11-11T23:37:32.758Z,79.82
2022-11-11T23:40:18.178Z,79.80
2022-11-11T23:43:03.680Z,79.80
2022-11-11T23:45:51.899Z,79.80
2022-11-11T23:48:41.979Z,79.79
2022-11-11T23:51:27.535Z,79.71
2022-11-11T23:54:12.872Z,79.70
2022-11-11T23:56:58.302Z,79.62
2022-11-11T23:59:43.690Z,79.60
